Time;durP1;ratioP1;P1;durP2;ratioP2;P2;SDS_P1;SDS_P2;PMS_P1;PMS_P2;Temp;Humidity;BMP_temperature;BMP_pressure;BME280_temperature;BME280_humidity;BME280_pressure;Samples;Min_cycle;Max_cycle;Signal;HPM_P1;HPM_P2
2023/03/07 00:01:03;;;;;;;14.25;5.65;;;4.40;99.90;;;;;;6153724;23;20017;-93
2023/03/07 00:03:29;;;;;;;11.30;4.35;;;4.40;99.90;;;;;;6153288;23;20032;-92
2023/03/07 00:06:08;;;;;;;8.93;4.22;;;4.40;99.90;;;;;;6128785;23;20092;-93
2023/03/07 00:08:34;;;;;;;10.15;3.83;;;4.40;99.90;;;;;;6128482;23;20016;-92
2023/03/07 00:11:05;;;;;;;8.93;3.45;;;4.40;99.90;;;;;;6153328;23;20022;-91
2023/03/07 00:13:32;;;;;;;10.73;3.85;;;4.40;99.90;;;;;;6128822;23;20017;-92
2023/03/07 00:16:06;;;;;;;9.30;3.33;;;4.50;99.90;;;;;;6128582;23;20064;-91
2023/03/07 00:18:33;;;;;;;9.38;3.30;;;4.40;99.90;;;;;;6128218;23;20053;-91
2023/03/07 00:21:00;;;;;;;10.05;3.88;;;4.40;99.90;;;;;;6153217;23;20349;-92
2023/03/07 00:23:26;;;;;;;9.52;4.07;;;4.40;99.90;;;;;;6153213;23;20009;-90
2023/03/07 00:26:22;;;;;;;9.35;3.67;;;4.40;99.90;;;;;;6128599;23;20014;-91
2023/03/07 00:28:49;;;;;;;8.60;2.83;;;4.50;99.90;;;;;;6073080;23;20061;-91
2023/03/07 00:31:17;;;;;;;8.13;2.83;;;4.50;99.90;;;;;;6097697;23;20454;-91
2023/03/07 00:33:43;;;;;;;4.63;1.90;;;4.50;99.90;;;;;;6098823;23;20096;-90
2023/03/07 00:36:17;;;;;;;5.22;1.90;;;4.50;99.90;;;;;;6099333;23;20053;-92
2023/03/07 00:38:43;;;;;;;5.35;1.73;;;4.50;99.90;;;;;;6099125;23;20029;-91
2023/03/07 00:41:14;;;;;;;2.50;1.20;;;4.40;99.90;;;;;;6099190;23;20033;-90
2023/03/07 00:43:40;;;;;;;3.13;0.93;;;4.40;99.90;;;;;;6099529;23;20018;-90
2023/03/07 00:46:06;;;;;;;3.97;0.90;;;4.40;99.90;;;;;;6099360;23;20018;-90
2023/03/07 00:48:34;;;;;;;3.50;1.25;;;4.40;99.90;;;;;;6098975;23;20077;-90
2023/03/07 00:51:01;;;;;;;2.13;0.90;;;4.30;99.90;;;;;;6099489;23;20026;-91
2023/03/07 00:53:26;;;;;;;2.13;0.93;;;4.30;99.90;;;;;;6075465;23;20045;-90
2023/03/07 00:56:00;;;;;;;3.95;1.00;;;4.30;99.90;;;;;;6099653;23;20496;-91
2023/03/07 00:58:27;;;;;;;3.33;1.10;;;4.30;99.90;;;;;;6099073;23;20437;-90
2023/03/07 01:00:54;;;;;;;3.15;1.23;;;4.30;99.90;;;;;;6099531;23;20504;-91
2023/03/07 01:03:20;;;;;;;2.00;0.88;;;4.30;99.90;;;;;;6099327;23;20021;-91
2023/03/07 01:05:46;;;;;;;3.05;0.93;;;4.30;99.90;;;;;;6139810;23;20105;-90
2023/03/07 01:08:12;;;;;;;4.75;0.90;;;4.30;99.90;;;;;;6154120;23;20037;-92
2023/03/07 01:10:37;;;;;;;2.60;0.90;;;4.30;99.90;;;;;;6129974;23;20096;-92
2023/03/07 01:13:03;;;;;;;3.90;1.00;;;4.30;99.90;;;;;;6129982;23;20492;-91
2023/03/07 01:15:30;;;;;;;7.50;1.50;;;4.30;99.90;;;;;;6154576;23;20028;-91
2023/03/07 01:17:55;;;;;;;4.55;1.52;;;4.30;99.90;;;;;;6129734;23;20025;-91
2023/03/07 01:20:21;;;;;;;1.90;0.90;;;4.30;99.90;;;;;;6154238;23;20021;-91
2023/03/07 01:22:47;;;;;;;4.30;1.20;;;4.30;99.90;;;;;;6154571;23;20401;-91
2023/03/07 01:25:12;;;;;;;3.53;1.13;;;4.30;99.90;;;;;;6129945;23;20092;-91
2023/03/07 01:27:39;;;;;;;3.97;1.30;;;4.30;99.90;;;;;;6153838;23;20014;-92
2023/03/07 01:30:06;;;;;;;3.90;1.30;;;4.30;99.90;;;;;;6154190;23;20018;-91
2023/03/07 01:32:31;;;;;;;4.22;1.58;;;4.30;99.90;;;;;;6154277;23;20401;-90
2023/03/07 01:34:57;;;;;;;3.58;1.23;;;4.20;99.90;;;;;;6129543;23;20080;-90
2023/03/07 01:37:23;;;;;;;5.25;1.17;;;4.20;99.90;;;;;;6154221;23;20024;-91
2023/03/07 01:39:52;;;;;;;3.95;1.30;;;4.30;99.90;;;;;;6154396;23;20022;-90
2023/03/07 01:42:19;;;;;;;6.50;1.20;;;4.20;99.90;;;;;;6153972;23;20018;-90
2023/03/07 01:45:27;;;;;;;4.50;1.50;;;4.20;99.90;;;;;;6153644;23;20010;-90
2023/03/07 01:47:52;;;;;;;5.55;1.45;;;4.30;99.90;;;;;;6153572;23;20108;-90
2023/03/07 01:50:18;;;;;;;1.02;0.68;;;4.20;99.90;;;;;;6154245;23;20053;-90
2023/03/07 01:52:59;;;;;;;1.73;0.82;;;4.20;99.90;;;;;;6129513;23;20449;-90
2023/03/07 01:55:32;;;;;;;1.17;0.50;;;4.20;99.90;;;;;;6154156;23;20093;-91
2023/03/07 01:58:04;;;;;;;2.17;0.73;;;4.20;99.90;;;;;;6129033;23;20353;-91
2023/03/07 02:00:30;;;;;;;1.90;0.70;;;4.20;99.90;;;;;;6129581;23;20017;-90
2023/03/07 02:03:22;;;;;;;1.55;0.63;;;4.20;99.90;;;;;;6153985;23;20024;-91
2023/03/07 02:06:06;;;;;;;2.05;0.63;;;4.10;99.90;;;;;;6154179;23;20060;-91
2023/03/07 02:08:33;;;;;;;1.35;0.77;;;4.10;99.90;;;;;;6153532;23;20017;-91
2023/03/07 02:10:59;;;;;;;3.80;0.90;;;4.10;99.90;;;;;;6154030;23;20189;-91
2023/03/07 02:13:25;;;;;;;3.40;0.77;;;4.00;99.90;;;;;;6154101;23;20045;-91
2023/03/07 02:15:51;;;;;;;2.72;0.70;;;4.00;99.90;;;;;;6154149;23;20020;-91
2023/03/07 02:18:22;;;;;;;1.38;0.73;;;4.00;99.90;;;;;;6153637;23;20014;-91
2023/03/07 02:20:53;;;;;;;2.58;1.10;;;3.90;99.90;;;;;;6153862;23;20013;-91
2023/03/07 02:23:46;;;;;;;3.10;1.00;;;3.90;99.90;;;;;;6129459;23;20072;-92
2023/03/07 02:26:20;;;;;;;1.15;0.75;;;3.90;99.90;;;;;;6153906;23;20061;-91
2023/03/07 02:28:47;;;;;;;4.82;0.93;;;3.80;99.90;;;;;;6153443;23;20021;-92
2023/03/07 02:31:13;;;;;;;2.30;1.05;;;3.80;99.90;;;;;;6153716;23;20056;-91
2023/03/07 02:33:38;;;;;;;2.25;0.80;;;3.80;99.90;;;;;;6129298;23;20021;-92
2023/03/07 02:36:11;;;;;;;4.65;1.17;;;3.70;99.90;;;;;;6129059;23;20033;-91
2023/03/07 02:38:40;;;;;;;3.80;0.95;;;3.70;99.90;;;;;;6128995;23;20108;-92
2023/03/07 02:41:09;;;;;;;2.90;1.17;;;3.70;99.90;;;;;;6128610;23;20053;-92
2023/03/07 02:43:35;;;;;;;5.13;1.20;;;3.60;99.90;;;;;;6129178;23;20417;-92
2023/03/07 02:46:00;;;;;;;4.25;1.27;;;3.60;99.90;;;;;;6153771;23;20014;-91
2023/03/07 02:48:26;;;;;;;4.70;1.27;;;3.60;99.90;;;;;;6128648;23;20084;-91
2023/03/07 02:50:51;;;;;;;4.22;1.20;;;3.60;99.90;;;;;;6153696;23;20020;-91
2023/03/07 02:53:17;;;;;;;3.13;1.20;;;3.60;99.90;;;;;;6153697;23;20056;-91
2023/03/07 02:55:42;;;;;;;4.45;1.40;;;3.60;99.90;;;;;;6153437;23;20016;-92
2023/03/07 02:58:08;;;;;;;7.38;1.42;;;3.60;99.90;;;;;;6153183;23;20024;-92
2023/03/07 03:00:34;;;;;;;3.90;1.65;;;3.60;99.90;;;;;;6153665;23;20389;-92
2023/03/07 03:02:59;;;;;;;6.05;1.10;;;3.60;99.90;;;;;;6153394;23;20071;-91
2023/03/07 03:05:25;;;;;;;1.77;0.68;;;3.60;99.90;;;;;;6153636;23;20013;-91
2023/03/07 03:07:51;;;;;;;5.75;1.05;;;3.60;99.90;;;;;;6153087;23;20089;-91
2023/03/07 03:10:17;;;;;;;3.78;0.70;;;3.60;99.90;;;;;;6153653;23;20016;-91
2023/03/07 03:12:43;;;;;;;3.83;0.68;;;3.60;99.90;;;;;;6153708;23;20694;-90
2023/03/07 03:15:09;;;;;;;3.40;0.95;;;3.60;99.90;;;;;;6153303;23;20021;-91
2023/03/07 03:17:35;;;;;;;4.15;1.05;;;3.60;99.90;;;;;;6128399;23;20041;-89
2023/03/07 03:20:02;;;;;;;2.65;0.70;;;3.60;99.90;;;;;;6128854;23;20028;-90
2023/03/07 03:22:29;;;;;;;3.35;0.90;;;3.60;99.90;;;;;;6153380;23;20092;-91
2023/03/07 03:24:55;;;;;;;5.65;0.90;;;3.60;99.90;;;;;;6153108;23;20018;-90
2023/03/07 03:27:20;;;;;;;4.95;0.68;;;3.60;99.90;;;;;;6153255;23;20033;-90
2023/03/07 03:29:46;;;;;;;3.97;0.80;;;3.60;99.90;;;;;;6152919;23;20474;-90
2023/03/07 03:32:12;;;;;;;3.83;1.10;;;3.60;99.90;;;;;;6128943;23;20021;-91
2023/03/07 03:34:37;;;;;;;6.35;1.02;;;3.60;99.90;;;;;;6128507;23;20028;-90
2023/03/07 03:37:03;;;;;;;6.53;1.13;;;3.60;99.90;;;;;;6151869;23;20018;-90
2023/03/07 03:39:28;;;;;;;9.02;0.82;;;3.60;99.90;;;;;;6127258;23;20480;-90
2023/03/07 03:41:55;;;;;;;4.68;1.00;;;3.60;99.90;;;;;;6151799;23;20018;-89
2023/03/07 03:44:21;;;;;;;3.85;1.02;;;3.60;99.90;;;;;;6127669;23;20069;-90
2023/03/07 03:46:47;;;;;;;7.70;1.17;;;3.60;99.90;;;;;;6147552;23;20010;-90
2023/03/07 03:49:15;;;;;;;4.32;0.88;;;3.60;99.90;;;;;;6153690;23;20451;-90
2023/03/07 03:51:41;;;;;;;4.00;0.98;;;3.50;99.90;;;;;;6153577;23;20033;-90
2023/03/07 03:54:06;;;;;;;4.85;0.85;;;3.50;99.90;;;;;;6153387;23;20072;-90
2023/03/07 03:56:32;;;;;;;7.10;1.00;;;3.50;99.90;;;;;;6128417;23;20014;-90
2023/03/07 03:58:57;;;;;;;6.93;0.90;;;3.60;99.90;;;;;;6152306;23;20021;-90
2023/03/07 04:01:26;;;;;;;7.72;1.17;;;3.60;99.90;;;;;;6127743;23;20013;-90
2023/03/07 04:03:53;;;;;;;5.18;1.08;;;3.60;99.90;;;;;;6152248;23;20024;-90
2023/03/07 04:06:24;;;;;;;2.95;0.95;;;3.60;99.90;;;;;;6151859;23;20009;-90
2023/03/07 04:08:51;;;;;;;7.22;1.05;;;3.60;99.90;;;;;;6152136;23;20017;-91
2023/03/07 04:11:18;;;;;;;12.70;1.42;;;3.70;99.90;;;;;;6153159;23;20100;-90
2023/03/07 04:13:44;;;;;;;5.57;0.90;;;3.70;99.90;;;;;;6128568;23;20014;-90
2023/03/07 04:16:10;;;;;;;1.23;0.65;;;3.70;99.90;;;;;;6152938;23;20057;-90
2023/03/07 04:18:37;;;;;;;7.63;0.95;;;3.70;99.90;;;;;;6128026;23;20029;-89
2023/03/07 04:21:04;;;;;;;7.55;1.13;;;3.80;99.90;;;;;;6152946;23;20119;-90
2023/03/07 04:23:39;;;;;;;3.35;0.88;;;3.80;99.90;;;;;;6153097;23;20028;-90
2023/03/07 04:26:06;;;;;;;3.28;0.85;;;3.80;99.90;;;;;;6153236;23;20092;-89
2023/03/07 04:28:44;;;;;;;10.35;1.98;;;3.80;99.90;;;;;;6152563;23;20413;-89
2023/03/07 04:31:19;;;;;;;9.27;1.35;;;3.80;99.90;;;;;;6153059;23;20018;-90
2023/03/07 04:33:45;;;;;;;5.65;1.05;;;3.80;99.90;;;;;;6153110;23;20013;-89
2023/03/07 04:36:11;;;;;;;6.47;1.40;;;3.80;99.90;;;;;;6109231;23;1060835;-90
2023/03/07 04:38:38;;;;;;;7.65;0.85;;;3.90;99.90;;;;;;6130062;23;20072;-90
2023/03/07 04:41:09;;;;;;;6.30;1.00;;;3.90;99.90;;;;;;6129851;23;20076;-91
2023/03/07 04:43:35;;;;;;;5.47;1.23;;;3.90;99.90;;;;;;6130370;23;20017;-90
2023/03/07 04:46:00;;;;;;;8.95;1.25;;;3.90;99.90;;;;;;6154877;23;20020;-90
2023/03/07 04:48:26;;;;;;;9.85;1.42;;;3.90;99.90;;;;;;6154279;23;20045;-91
2023/03/07 04:50:51;;;;;;;8.93;1.63;;;3.90;99.90;;;;;;6154799;23;20088;-90
2023/03/07 04:53:18;;;;;;;7.22;1.05;;;3.90;99.90;;;;;;6129954;23;20516;-91
2023/03/07 04:55:44;;;;;;;12.90;1.27;;;3.90;99.90;;;;;;6130204;23;20056;-90
2023/03/07 04:58:11;;;;;;;6.93;0.82;;;3.90;99.90;;;;;;6129596;23;20021;-90
2023/03/07 05:00:42;;;;;;;9.00;1.00;;;3.80;99.90;;;;;;6154630;23;20005;-90
2023/03/07 05:03:09;;;;;;;7.25;1.98;;;3.80;99.90;;;;;;6154433;23;20021;-91
2023/03/07 05:05:35;;;;;;;13.13;1.50;;;3.80;99.90;;;;;;6154413;23;20349;-90
2023/03/07 05:08:02;;;;;;;5.80;1.17;;;3.80;99.90;;;;;;6129377;23;20453;-91
2023/03/07 05:10:28;;;;;;;5.18;1.05;;;3.70;99.90;;;;;;6130006;23;20009;-90
2023/03/07 05:12:53;;;;;;;6.93;1.35;;;3.70;99.90;;;;;;6154621;23;20056;-91
2023/03/07 05:15:19;;;;;;;10.18;1.63;;;3.70;99.90;;;;;;6154487;23;20032;-90
2023/03/07 05:17:44;;;;;;;7.72;1.17;;;3.70;99.90;;;;;;6129606;23;20580;-90
2023/03/07 05:20:11;;;;;;;7.57;1.00;;;3.70;99.90;;;;;;6129737;23;20063;-91
2023/03/07 05:22:37;;;;;;;3.13;0.70;;;3.70;99.90;;;;;;6129903;23;20049;-90
2023/03/07 05:25:03;;;;;;;8.35;1.80;;;3.70;99.90;;;;;;6154319;23;20009;-90
2023/03/07 05:27:29;;;;;;;10.55;1.38;;;3.70;99.90;;;;;;6154117;23;20025;-90
2023/03/07 05:29:55;;;;;;;10.48;1.83;;;3.70;99.90;;;;;;6129862;23;20017;-90
2023/03/07 05:32:20;;;;;;;8.60;1.48;;;3.70;99.90;;;;;;6154781;23;20017;-91
2023/03/07 05:34:47;;;;;;;9.95;1.92;;;3.70;99.90;;;;;;6129565;23;20024;-90
2023/03/07 05:37:13;;;;;;;5.15;0.82;;;3.70;99.90;;;;;;6153850;23;20017;-90
2023/03/07 05:39:38;;;;;;;5.30;0.82;;;3.70;99.90;;;;;;6153940;23;20018;-90
2023/03/07 05:42:04;;;;;;;6.68;1.27;;;3.70;99.90;;;;;;6154154;23;20021;-90
2023/03/07 05:44:30;;;;;;;5.35;1.15;;;3.70;99.90;;;;;;6154228;23;20017;-91
2023/03/07 05:46:55;;;;;;;8.75;0.93;;;3.70;99.90;;;;;;6129719;23;20072;-90
2023/03/07 05:49:21;;;;;;;8.32;1.02;;;3.70;99.90;;;;;;6129170;23;20024;-91
2023/03/07 05:51:47;;;;;;;7.47;1.40;;;3.60;99.90;;;;;;6129595;23;20013;-90
2023/03/07 05:54:12;;;;;;;6.13;1.08;;;3.70;99.90;;;;;;6129632;23;20156;-90
2023/03/07 05:56:38;;;;;;;5.60;1.95;;;3.70;99.90;;;;;;6154125;23;20078;-91
2023/03/07 05:59:06;;;;;;;7.45;1.27;;;3.70;99.90;;;;;;6153419;23;20024;-90
2023/03/07 06:01:32;;;;;;;10.40;0.95;;;3.70;99.90;;;;;;6154079;23;20068;-90
2023/03/07 06:03:58;;;;;;;9.10;1.00;;;3.70;99.90;;;;;;6153825;23;20009;-90
2023/03/07 06:06:24;;;;;;;9.38;1.10;;;3.70;99.90;;;;;;6129109;23;20059;-91
2023/03/07 06:08:49;;;;;;;9.07;1.50;;;3.70;99.90;;;;;;6153362;23;20021;-90
2023/03/07 06:11:15;;;;;;;7.80;0.98;;;3.70;99.90;;;;;;6129680;23;20409;-90
2023/03/07 06:13:41;;;;;;;8.63;2.03;;;3.70;99.90;;;;;;6129203;23;20024;-90
2023/03/07 06:16:06;;;;;;;6.93;0.75;;;3.70;99.90;;;;;;6153700;23;20025;-90
2023/03/07 06:18:32;;;;;;;7.88;1.42;;;3.70;99.90;;;;;;6153373;23;20021;-90
2023/03/07 06:21:00;;;;;;;5.13;1.23;;;3.60;99.90;;;;;;6153650;23;20013;-90
2023/03/07 06:23:30;;;;;;;8.07;2.03;;;3.60;99.90;;;;;;6129618;23;20017;-90
2023/03/07 06:25:56;;;;;;;8.25;1.08;;;3.60;99.90;;;;;;6153596;23;20013;-90
2023/03/07 06:28:22;;;;;;;4.85;1.10;;;3.60;99.90;;;;;;6153267;23;20492;-89
2023/03/07 06:30:48;;;;;;;6.30;0.93;;;3.60;99.90;;;;;;6128847;23;20345;-91
2023/03/07 06:33:14;;;;;;;6.55;0.85;;;3.60;99.90;;;;;;6153506;23;20604;-90
2023/03/07 06:35:41;;;;;;;3.97;1.15;;;3.70;99.90;;;;;;6153220;23;20026;-89
2023/03/07 06:38:07;;;;;;;5.55;1.13;;;3.70;99.90;;;;;;6128812;23;20017;-90
2023/03/07 06:40:33;;;;;;;5.22;1.13;;;3.70;99.90;;;;;;6153433;23;20097;-89
2023/03/07 06:42:58;;;;;;;6.55;1.00;;;3.70;99.90;;;;;;6128989;23;20049;-90
2023/03/07 06:45:24;;;;;;;4.15;0.80;;;3.70;99.90;;;;;;6153917;23;20018;-91
2023/03/07 06:47:50;;;;;;;7.75;1.33;;;3.70;99.90;;;;;;6128695;23;20018;-90
2023/03/07 06:50:16;;;;;;;6.03;0.75;;;3.70;99.90;;;;;;6153584;23;20041;-90
2023/03/07 06:52:42;;;;;;;6.63;1.45;;;3.70;99.90;;;;;;6153612;23;20069;-91
2023/03/07 06:55:08;;;;;;;3.20;0.55;;;3.60;99.90;;;;;;6129081;23;20017;-91
2023/03/07 06:57:34;;;;;;;4.07;0.60;;;3.60;99.90;;;;;;6153525;23;20028;-90
2023/03/07 07:00:01;;;;;;;4.53;1.20;;;3.60;99.90;;;;;;6128654;23;20021;-91
2023/03/07 07:02:27;;;;;;;4.60;0.98;;;3.60;99.90;;;;;;6153616;23;20048;-90
2023/03/07 07:04:52;;;;;;;7.63;0.90;;;3.60;99.90;;;;;;6128969;23;20531;-90
2023/03/07 07:07:18;;;;;;;7.85;0.75;;;3.60;99.90;;;;;;6153342;23;20041;-91
2023/03/07 07:09:43;;;;;;;5.15;1.60;;;3.60;99.90;;;;;;6128296;23;20015;-90
2023/03/07 07:12:09;;;;;;;5.32;1.10;;;3.60;99.90;;;;;;6153670;23;20026;-91
2023/03/07 07:14:35;;;;;;;4.20;1.05;;;3.60;99.90;;;;;;6129154;23;20045;-90
2023/03/07 07:17:00;;;;;;;6.00;1.17;;;3.60;99.90;;;;;;6153445;23;20092;-90
2023/03/07 07:19:26;;;;;;;3.20;0.88;;;3.70;99.90;;;;;;6128645;23;20014;-90
2023/03/07 07:21:52;;;;;;;9.88;1.08;;;3.70;99.90;;;;;;6153479;23;20013;-90
2023/03/07 07:24:18;;;;;;;2.80;0.60;;;3.70;99.90;;;;;;6153332;23;20013;-90
2023/03/07 07:26:44;;;;;;;1.88;0.73;;;3.70;99.90;;;;;;6153249;23;20020;-90
2023/03/07 07:29:09;;;;;;;5.18;0.70;;;3.70;99.90;;;;;;6128105;23;20066;-91
2023/03/07 07:31:35;;;;;;;3.08;0.60;;;3.70;99.90;;;;;;6129032;23;20610;-90
2023/03/07 07:34:01;;;;;;;2.03;0.90;;;3.60;99.90;;;;;;6153138;23;20018;-90
2023/03/07 07:36:27;;;;;;;3.22;0.57;;;3.50;99.90;;;;;;6128732;23;20073;-90
2023/03/07 07:38:52;;;;;;;4.78;1.02;;;3.50;99.90;;;;;;6152530;23;20156;-90
2023/03/07 07:41:18;;;;;;;3.08;0.75;;;3.40;99.90;;;;;;6128576;23;20021;-90
2023/03/07 07:43:45;;;;;;;4.95;0.98;;;3.40;99.90;;;;;;6152719;23;20070;-90
2023/03/07 07:46:11;;;;;;;1.20;0.25;;;3.40;99.90;;;;;;6153197;23;20018;-91
2023/03/07 07:48:37;;;;;;;5.65;0.50;;;3.40;99.90;;;;;;6152801;23;20097;-90
2023/03/07 07:51:03;;;;;;;4.18;0.70;;;3.30;99.90;;;;;;6153056;23;20025;-91
2023/03/07 07:53:29;;;;;;;3.35;0.88;;;3.30;99.90;;;;;;6153298;23;20021;-90
2023/03/07 07:55:56;;;;;;;4.45;0.60;;;3.30;99.90;;;;;;6153118;23;20014;-91
2023/03/07 07:58:21;;;;;;;5.93;0.93;;;3.30;99.90;;;;;;6152865;23;20014;-90
2023/03/07 08:00:47;;;;;;;1.75;0.63;;;3.30;99.90;;;;;;6153152;23;20414;-90
2023/03/07 08:03:13;;;;;;;2.13;0.63;;;3.20;99.90;;;;;;6153023;23;20092;-90
2023/03/07 08:05:47;;;;;;;3.00;0.68;;;3.20;99.90;;;;;;6153228;23;20009;-91
2023/03/07 08:08:16;;;;;;;1.80;0.55;;;3.10;99.90;;;;;;6125171;23;20117;-91
2023/03/07 08:10:44;;;;;;;4.05;0.88;;;3.10;99.90;;;;;;6149792;23;20411;-91
2023/03/07 08:13:15;;;;;;;4.43;0.75;;;3.00;99.90;;;;;;6127162;23;20460;-88
2023/03/07 08:15:41;;;;;;;4.25;0.98;;;2.90;99.90;;;;;;6125508;23;20022;-90
2023/03/07 08:18:09;;;;;;;2.92;0.85;;;2.90;99.90;;;;;;6125941;23;20014;-90
2023/03/07 08:20:36;;;;;;;4.22;0.65;;;2.90;99.90;;;;;;6126668;23;20017;-92
2023/03/07 08:23:02;;;;;;;3.72;0.77;;;2.80;99.90;;;;;;6126886;23;20053;-91
2023/03/07 08:25:28;;;;;;;3.25;0.93;;;2.80;99.90;;;;;;6127495;23;20022;-89
2023/03/07 08:27:54;;;;;;;5.68;0.73;;;2.80;99.90;;;;;;6126666;23;20052;-90
2023/03/07 08:30:25;;;;;;;5.95;1.23;;;2.80;99.90;;;;;;6126174;23;20164;-89
2023/03/07 08:32:52;;;;;;;4.50;0.77;;;2.80;99.90;;;;;;6128060;23;20385;-90
2023/03/07 08:35:18;;;;;;;6.05;1.35;;;2.80;99.90;;;;;;6127224;23;20100;-89
2023/03/07 08:37:45;;;;;;;2.50;0.80;;;2.80;99.90;;;;;;6127339;23;20385;-89
2023/03/07 08:40:13;;;;;;;5.82;1.00;;;2.80;99.90;;;;;;6125054;23;20013;-90
2023/03/07 08:42:38;;;;;;;2.60;0.60;;;2.80;99.90;;;;;;6125508;23;20484;-90
2023/03/07 08:45:04;;;;;;;5.78;0.63;;;2.80;99.90;;;;;;6151533;23;20014;-90
2023/03/07 08:47:30;;;;;;;3.70;0.80;;;2.90;99.90;;;;;;6125576;23;20457;-90
2023/03/07 08:49:56;;;;;;;5.88;1.05;;;2.90;99.90;;;;;;6151402;23;20085;-90
2023/03/07 08:52:21;;;;;;;2.90;0.80;;;3.00;99.90;;;;;;6125290;23;20028;-90
2023/03/07 08:54:47;;;;;;;1.80;0.68;;;3.00;99.90;;;;;;6151146;23;20025;-90
2023/03/07 08:57:13;;;;;;;3.67;1.08;;;3.00;99.90;;;;;;6152674;23;20417;-90
2023/03/07 08:59:38;;;;;;;4.75;0.80;;;3.10;99.90;;;;;;6127003;23;20495;-90
2023/03/07 09:02:04;;;;;;;3.92;1.02;;;3.10;99.90;;;;;;6128505;23;20353;-90
2023/03/07 09:04:29;;;;;;;3.92;1.17;;;3.20;99.90;;;;;;6152779;23;20029;-90
2023/03/07 09:06:56;;;;;;;9.02;1.58;;;3.20;99.90;;;;;;6127748;23;20526;-90
2023/03/07 09:09:21;;;;;;;5.20;0.95;;;3.20;99.90;;;;;;6151385;23;20010;-90
2023/03/07 09:11:47;;;;;;;5.53;1.17;;;3.30;99.90;;;;;;6150503;23;20103;-91
2023/03/07 09:14:13;;;;;;;4.03;0.98;;;3.40;99.90;;;;;;6151402;23;20026;-91
2023/03/07 09:16:39;;;;;;;5.15;1.20;;;3.40;99.90;;;;;;6150016;23;20029;-91
2023/03/07 09:19:04;;;;;;;4.72;1.08;;;3.40;99.90;;;;;;6151922;23;20014;-90
2023/03/07 09:21:30;;;;;;;5.82;1.10;;;3.40;99.90;;;;;;6152262;23;20084;-91
2023/03/07 09:23:56;;;;;;;2.30;0.50;;;3.50;99.90;;;;;;6128367;23;20014;-90
2023/03/07 09:26:21;;;;;;;5.05;0.70;;;3.50;99.90;;;;;;6128150;23;20361;-91
2023/03/07 09:28:50;;;;;;;4.15;0.95;;;3.60;99.90;;;;;;6127469;23;20017;-90
2023/03/07 09:31:16;;;;;;;2.90;0.50;;;3.60;99.90;;;;;;6153312;23;20018;-91
2023/03/07 09:33:41;;;;;;;3.67;0.80;;;3.70;99.90;;;;;;6152901;23;20492;-91
2023/03/07 09:36:10;;;;;;;3.70;0.90;;;3.70;99.90;;;;;;6152882;23;20025;-91
2023/03/07 09:38:36;;;;;;;3.35;1.00;;;3.80;99.90;;;;;;6152921;23;20028;-90
2023/03/07 09:41:52;;;;;;;4.47;0.88;;;3.80;99.90;;;;;;6152081;23;20076;-92
2023/03/07 09:44:58;;;;;;;2.22;0.73;;;3.80;99.90;;;;;;6098365;23;20079;-91
2023/03/07 09:47:43;;;;;;;5.45;1.02;;;3.90;99.90;;;;;;6079545;23;20023;-91
2023/03/07 09:50:43;;;;;;;6.57;1.08;;;3.90;99.90;;;;;;6069203;23;20026;-91
2023/03/07 09:53:21;;;;;;;3.75;0.70;;;3.90;99.90;;;;;;6068662;23;20021;-91
2023/03/07 09:55:50;;;;;;;7.30;0.95;;;4.00;99.90;;;;;;6069396;23;20102;-91
2023/03/07 09:58:20;;;;;;;5.03;0.93;;;4.00;99.90;;;;;;6068493;23;20022;-91
2023/03/07 10:00:50;;;;;;;2.42;0.57;;;4.00;99.90;;;;;;6068043;23;20073;-91
2023/03/07 10:03:44;;;;;;;5.45;1.10;;;4.10;99.90;;;;;;6044993;23;20019;-91
2023/03/07 10:06:25;;;;;;;2.38;0.73;;;4.10;99.90;;;;;;6067237;23;20397;-91
2023/03/07 10:08:52;;;;;;;6.00;1.10;;;4.20;99.90;;;;;;6068085;23;20020;-91
2023/03/07 10:11:33;;;;;;;1.70;0.25;;;4.20;99.90;;;;;;6067998;23;20113;-91
2023/03/07 10:14:01;;;;;;;5.55;1.00;;;4.30;99.90;;;;;;6044144;23;20023;-92
2023/03/07 10:17:19;;;;;;;3.50;0.85;;;4.30;99.90;;;;;;6066800;23;20018;-91
2023/03/07 10:19:48;;;;;;;5.88;0.90;;;4.40;99.90;;;;;;6033510;23;20022;-91
2023/03/07 10:22:42;;;;;;;4.38;0.80;;;4.50;99.90;;;;;;6043895;23;20074;-92
2023/03/07 10:25:16;;;;;;;5.88;0.68;;;4.60;99.90;;;;;;6152556;23;20531;-91
2023/03/07 10:27:43;;;;;;;2.40;0.52;;;4.60;99.90;;;;;;6151141;23;20013;-91
2023/03/07 10:30:19;;;;;;;4.13;0.70;;;4.70;99.90;;;;;;6151411;23;20536;-91
2023/03/07 10:32:54;;;;;;;5.55;1.17;;;4.80;99.90;;;;;;6151892;23;20524;-91
2023/03/07 10:35:23;;;;;;;1.10;0.60;;;4.80;99.90;;;;;;6151159;23;20363;-91
2023/03/07 10:38:30;;;;;;;3.90;0.82;;;4.80;99.90;;;;;;6127576;23;20021;-90
2023/03/07 10:40:58;;;;;;;5.10;0.82;;;4.80;99.90;;;;;;6151357;23;20028;-90
2023/03/07 10:43:28;;;;;;;2.45;0.55;;;4.80;99.90;;;;;;6151757;23;20059;-91
2023/03/07 10:46:20;;;;;;;4.47;0.85;;;4.80;99.90;;;;;;6126464;23;20032;-92
2023/03/07 10:48:49;;;;;;;4.70;0.95;;;4.70;99.90;;;;;;6125230;23;20473;-91
2023/03/07 10:51:45;;;;;;;3.90;1.05;;;4.70;99.90;;;;;;6152356;23;20028;-92
2023/03/07 10:54:42;;;;;;;8.85;1.10;;;4.80;99.90;;;;;;6151458;23;20021;-91
2023/03/07 10:57:14;;;;;;;5.20;1.40;;;4.90;99.90;;;;;;6124204;23;20071;-90
2023/03/07 10:59:46;;;;;;;4.60;1.00;;;5.00;99.90;;;;;;6125382;23;20010;-90
2023/03/07 11:02:35;;;;;;;7.50;0.97;;;5.20;99.90;;;;;;6152281;23;20009;-91
2023/03/07 11:05:02;;;;;;;6.20;1.02;;;5.20;99.90;;;;;;6151552;23;20728;-92
2023/03/07 11:07:31;;;;;;;3.45;1.02;;;5.30;99.90;;;;;;6124503;23;20012;-91
2023/03/07 11:09:58;;;;;;;6.93;1.00;;;5.40;99.90;;;;;;6126137;23;20018;-91
2023/03/07 11:12:27;;;;;;;5.32;1.08;;;5.40;99.90;;;;;;6151890;23;20018;-91
2023/03/07 11:14:56;;;;;;;5.18;1.13;;;5.40;99.90;;;;;;6152214;23;20260;-91
2023/03/07 11:17:37;;;;;;;10.50;0.90;;;5.50;99.90;;;;;;6126549;23;20028;-91
2023/03/07 11:20:25;;;;;;;7.00;1.63;;;5.40;99.90;;;;;;6127954;23;20018;-91
2023/03/07 11:23:17;;;;;;;7.72;1.00;;;5.50;99.90;;;;;;6151044;23;20017;-91
2023/03/07 11:25:42;;;;;;;8.70;1.10;;;5.50;99.90;;;;;;6151758;23;20013;-90
2023/03/07 11:28:23;;;;;;;6.35;1.10;;;5.60;99.90;;;;;;6151146;23;20480;-89
2023/03/07 11:31:16;;;;;;;7.57;1.20;;;5.70;99.90;;;;;;6152034;23;20014;-91
2023/03/07 11:33:50;;;;;;;5.32;0.70;;;5.80;99.90;;;;;;6127727;23;20044;-91
2023/03/07 11:36:26;;;;;;;3.42;1.08;;;5.70;99.90;;;;;;6150873;23;20045;-88
2023/03/07 11:39:03;;;;;;;4.72;1.10;;;5.80;99.90;;;;;;6151613;23;20349;-91
2023/03/07 11:41:37;;;;;;;8.85;1.10;;;5.80;99.90;;;;;;6126149;23;20393;-90
2023/03/07 11:44:27;;;;;;;7.03;1.15;;;5.90;99.90;;;;;;6126812;23;20032;-90
2023/03/07 11:47:11;;;;;;;6.05;0.90;;;6.00;99.90;;;;;;6150374;23;20472;-90
2023/03/07 11:50:05;;;;;;;6.55;1.27;;;6.10;99.90;;;;;;6151072;23;20093;-92
2023/03/07 11:53:35;;;;;;;5.85;1.15;;;6.30;99.90;;;;;;6151094;23;20025;-93
2023/03/07 11:56:24;;;;;;;11.10;1.08;;;6.40;99.90;;;;;;6072505;23;20504;-90
2023/03/07 11:58:53;;;;;;;4.72;0.95;;;6.60;99.90;;;;;;6095151;23;20097;-92
2023/03/07 12:01:46;;;;;;;8.75;1.88;;;6.50;99.90;;;;;;6074105;23;20020;-92
2023/03/07 12:04:35;;;;;;;8.98;1.25;;;6.50;99.90;;;;;;6097258;23;20014;-91
2023/03/07 12:07:12;;;;;;;8.18;1.15;;;6.40;99.90;;;;;;6071744;23;20365;-92
2023/03/07 12:10:10;;;;;;;7.25;1.50;;;6.40;99.90;;;;;;6071543;23;20014;-92
2023/03/07 12:12:54;;;;;;;6.00;1.23;;;6.30;99.90;;;;;;6095983;23;20105;-91
2023/03/07 12:15:35;;;;;;;1.63;0.57;;;6.30;99.90;;;;;;6097006;23;20022;-91
2023/03/07 12:18:37;;;;;;;7.70;1.30;;;6.20;99.90;;;;;;6095362;23;20017;-90
2023/03/07 12:21:31;;;;;;;6.35;1.10;;;6.10;99.90;;;;;;6073605;23;20402;-92
2023/03/07 12:24:05;;;;;;;6.43;1.65;;;5.90;99.90;;;;;;6100437;23;20018;-90
2023/03/07 12:26:51;;;;;;;7.72;1.40;;;5.70;99.90;;;;;;6096270;23;20022;-90
2023/03/07 12:29:31;;;;;;;4.63;0.93;;;5.50;99.90;;;;;;6101890;23;20353;-90
2023/03/07 12:32:02;;;;;;;7.72;1.52;;;5.30;99.90;;;;;;6129949;23;20074;-91
2023/03/07 12:34:37;;;;;;;7.80;1.80;;;5.20;99.90;;;;;;6129062;23;20067;-90
2023/03/07 12:37:15;;;;;;;5.07;1.02;;;5.00;99.90;;;;;;6129663;23;20024;-90
2023/03/07 12:40:09;;;;;;;6.47;1.15;;;4.90;99.90;;;;;;6153838;23;20077;-92
2023/03/07 12:42:51;;;;;;;10.23;1.30;;;4.80;99.90;;;;;;6154130;23;20097;-90
2023/03/07 12:45:19;;;;;;;6.68;1.58;;;4.70;99.90;;;;;;6128972;23;20012;-90
2023/03/07 12:47:55;;;;;;;4.15;1.15;;;4.70;99.90;;;;;;6153103;23;20603;-91
2023/03/07 12:50:51;;;;;;;6.97;1.67;;;4.60;99.90;;;;;;6129676;23;20056;-90
2023/03/07 12:53:23;;;;;;;3.78;0.80;;;4.60;99.90;;;;;;6154057;23;20021;-91
2023/03/07 12:56:14;;;;;;;5.40;0.80;;;4.40;99.90;;;;;;6153958;23;20477;-90
2023/03/07 12:58:57;;;;;;;4.82;0.73;;;4.10;99.90;;;;;;6128109;23;20013;-91
2023/03/07 13:01:29;;;;;;;;;;;3.70;99.90;;;;;;6154674;23;20013;-91
2023/03/07 13:04:12;;;;;;;8.05;1.10;;;3.50;99.90;;;;;;6153506;23;20254;-91
2023/03/07 13:06:40;;;;;;;7.05;1.40;;;3.40;99.90;;;;;;6128946;23;20020;-91
2023/03/07 13:09:12;;;;;;;3.88;1.05;;;3.40;99.90;;;;;;6128755;23;20361;-91
2023/03/07 13:12:21;;;;;;;6.28;0.85;;;3.30;99.90;;;;;;6128897;23;20097;-90
2023/03/07 13:14:57;;;;;;;3.05;1.00;;;3.30;99.90;;;;;;6129282;23;20020;-90
2023/03/07 13:17:29;;;;;;;3.38;0.75;;;3.30;99.90;;;;;;6153185;23;20073;-91